sensor_id;sensor_type;location;lat;lon;timestamp;P1;durP1;ratioP1;P2;durP2;ratioP2
21120;SDS011;12519;43.318;21.898;2022-10-17T00:01:36;53.0;;;49.0;;
21120;SDS011;12519;43.318;21.898;2022-10-17T00:06:14;38.0;;;34.0;;
21120;SDS011;12519;43.318;21.898;2022-10-17T00:10:59;38.0;;;34.0;;
21120;SDS011;12519;43.318;21.898;2022-10-17T00:15:43;23.0;;;20.0;;
21120;SDS011;12519;43.318;21.898;2022-10-17T00:20:20;23.0;;;20.0;;
21120;SDS011;12519;43.318;21.898;2022-10-17T00:24:57;20.0;;;17.0;;
21120;SDS011;12519;43.318;21.898;2022-10-17T00:29:34;20.0;;;17.0;;
21120;SDS011;12519;43.318;21.898;2022-10-17T00:34:11;16.0;;;14.0;;
21120;SDS011;12519;43.318;21.898;2022-10-17T00:38:54;16.0;;;14.0;;
21120;SDS011;12519;43.318;21.898;2022-10-17T00:43:57;16.0;;;15.0;;
21120;SDS011;12519;43.318;21.898;2022-10-17T00:48:43;16.0;;;15.0;;
21120;SDS011;12519;43.318;21.898;2022-10-17T00:53:28;16.0;;;15.0;;
21120;SDS011;12519;43.318;21.898;2022-10-17T00:58:05;17.0;;;16.0;;
21120;SDS011;12519;43.318;21.898;2022-10-17T01:02:44;17.0;;;16.0;;
21120;SDS011;12519;43.318;21.898;2022-10-17T01:07:23;22.0;;;20.0;;
21120;SDS011;12519;43.318;21.898;2022-10-17T01:12:19;22.0;;;20.0;;
21120;SDS011;12519;43.318;21.898;2022-10-17T01:17:27;26.0;;;23.0;;
21120;SDS011;12519;43.318;21.898;2022-10-17T01:22:41;26.0;;;23.0;;
21120;SDS011;12519;43.318;21.898;2022-10-17T01:28:20;25.0;;;22.0;;
21120;SDS011;12519;43.318;21.898;2022-10-17T01:34:04;24.0;;;21.0;;
21120;SDS011;12519;43.318;21.898;2022-10-17T01:39:25;24.0;;;21.0;;
21120;SDS011;12519;43.318;21.898;2022-10-17T01:44:43;23.0;;;20.0;;
21120;SDS011;12519;43.318;21.898;2022-10-17T01:49:44;23.0;;;20.0;;
21120;SDS011;12519;43.318;21.898;2022-10-17T01:54:42;22.0;;;20.0;;
21120;SDS011;12519;43.318;21.898;2022-10-17T01:59:43;22.0;;;20.0;;
21120;SDS011;12519;43.318;21.898;2022-10-17T02:04:31;20.0;;;19.0;;
21120;SDS011;12519;43.318;21.898;2022-10-17T02:09:20;20.0;;;19.0;;
21120;SDS011;12519;43.318;21.898;2022-10-17T02:14:31;19.0;;;18.0;;
21120;SDS011;12519;43.318;21.898;2022-10-17T02:19:54;19.0;;;18.0;;
21120;SDS011;12519;43.318;21.898;2022-10-17T02:24:54;21.0;;;17.0;;
21120;SDS011;12519;43.318;21.898;2022-10-17T02:29:50;21.0;;;17.0;;
21120;SDS011;12519;43.318;21.898;2022-10-17T02:34:43;23.0;;;16.0;;
21120;SDS011;12519;43.318;21.898;2022-10-17T02:39:28;23.0;;;16.0;;
21120;SDS011;12519;43.318;21.898;2022-10-17T02:44:09;23.0;;;16.0;;
21120;SDS011;12519;43.318;21.898;2022-10-17T02:48:54;20.0;;;16.0;;
21120;SDS011;12519;43.318;21.898;2022-10-17T02:54:07;20.0;;;16.0;;
21120;SDS011;12519;43.318;21.898;2022-10-17T02:59:06;17.0;;;16.0;;
21120;SDS011;12519;43.318;21.898;2022-10-17T03:04:09;17.0;;;16.0;;
21120;SDS011;12519;43.318;21.898;2022-10-17T03:08:50;14.0;;;14.0;;
21120;SDS011;12519;43.318;21.898;2022-10-17T03:13:28;14.0;;;14.0;;
21120;SDS011;12519;43.318;21.898;2022-10-17T03:18:06;12.0;;;11.0;;
21120;SDS011;12519;43.318;21.898;2022-10-17T03:22:43;12.0;;;11.0;;
21120;SDS011;12519;43.318;21.898;2022-10-17T03:27:20;11.0;;;10.0;;
21120;SDS011;12519;43.318;21.898;2022-10-17T03:31:57;11.0;;;10.0;;
21120;SDS011;12519;43.318;21.898;2022-10-17T03:36:33;10.0;;;9.0;;
21120;SDS011;12519;43.318;21.898;2022-10-17T03:41:11;10.0;;;9.0;;
21120;SDS011;12519;43.318;21.898;2022-10-17T03:45:49;10.0;;;9.0;;
21120;SDS011;12519;43.318;21.898;2022-10-17T03:50:25;10.0;;;9.0;;
21120;SDS011;12519;43.318;21.898;2022-10-17T03:55:04;9.0;;;9.0;;
21120;SDS011;12519;43.318;21.898;2022-10-17T03:59:41;9.0;;;9.0;;
21120;SDS011;12519;43.318;21.898;2022-10-17T04:04:18;9.0;;;9.0;;
21120;SDS011;12519;43.318;21.898;2022-10-17T04:08:55;11.0;;;10.0;;
21120;SDS011;12519;43.318;21.898;2022-10-17T04:13:33;11.0;;;10.0;;
21120;SDS011;12519;43.318;21.898;2022-10-17T04:18:11;13.0;;;10.0;;
21120;SDS011;12519;43.318;21.898;2022-10-17T04:22:48;13.0;;;10.0;;
21120;SDS011;12519;43.318;21.898;2022-10-17T04:27:25;15.0;;;13.0;;
21120;SDS011;12519;43.318;21.898;2022-10-17T04:32:02;15.0;;;13.0;;
21120;SDS011;12519;43.318;21.898;2022-10-17T04:36:40;17.0;;;16.0;;
21120;SDS011;12519;43.318;21.898;2022-10-17T04:41:18;17.0;;;16.0;;
21120;SDS011;12519;43.318;21.898;2022-10-17T04:45:56;20.0;;;18.0;;
21120;SDS011;12519;43.318;21.898;2022-10-17T04:50:34;20.0;;;18.0;;
21120;SDS011;12519;43.318;21.898;2022-10-17T04:55:10;24.0;;;20.0;;
21120;SDS011;12519;43.318;21.898;2022-10-17T04:59:47;24.0;;;20.0;;
21120;SDS011;12519;43.318;21.898;2022-10-17T05:04:23;24.0;;;20.0;;
21120;SDS011;12519;43.318;21.898;2022-10-17T05:08:59;27.0;;;23.0;;
21120;SDS011;12519;43.318;21.898;2022-10-17T05:13:36;27.0;;;23.0;;
21120;SDS011;12519;43.318;21.898;2022-10-17T05:18:12;30.0;;;26.0;;
21120;SDS011;12519;43.318;21.898;2022-10-17T05:22:48;30.0;;;26.0;;
21120;SDS011;12519;43.318;21.898;2022-10-17T05:27:25;29.0;;;24.0;;
21120;SDS011;12519;43.318;21.898;2022-10-17T05:32:02;29.0;;;24.0;;
21120;SDS011;12519;43.318;21.898;2022-10-17T05:36:40;28.0;;;23.0;;
21120;SDS011;12519;43.318;21.898;2022-10-17T05:41:19;28.0;;;23.0;;
21120;SDS011;12519;43.318;21.898;2022-10-17T05:45:56;25.0;;;20.0;;
21120;SDS011;12519;43.318;21.898;2022-10-17T05:50:34;25.0;;;20.0;;
21120;SDS011;12519;43.318;21.898;2022-10-17T05:55:11;22.0;;;18.0;;
21120;SDS011;12519;43.318;21.898;2022-10-17T05:59:48;22.0;;;18.0;;
21120;SDS011;12519;43.318;21.898;2022-10-17T06:04:25;22.0;;;18.0;;
21120;SDS011;12519;43.318;21.898;2022-10-17T06:09:02;23.0;;;18.0;;
21120;SDS011;12519;43.318;21.898;2022-10-17T06:13:41;23.0;;;18.0;;
21120;SDS011;12519;43.318;21.898;2022-10-17T06:18:18;24.0;;;17.0;;
21120;SDS011;12519;43.318;21.898;2022-10-17T06:22:55;24.0;;;17.0;;
21120;SDS011;12519;43.318;21.898;2022-10-17T06:27:32;20.0;;;16.0;;
21120;SDS011;12519;43.318;21.898;2022-10-17T06:32:10;20.0;;;16.0;;
21120;SDS011;12519;43.318;21.898;2022-10-17T06:36:47;17.0;;;15.0;;
21120;SDS011;12519;43.318;21.898;2022-10-17T06:41:24;17.0;;;15.0;;
21120;SDS011;12519;43.318;21.898;2022-10-17T06:46:01;20.0;;;16.0;;
21120;SDS011;12519;43.318;21.898;2022-10-17T06:50:38;20.0;;;16.0;;
21120;SDS011;12519;43.318;21.898;2022-10-17T06:55:16;23.0;;;17.0;;
21120;SDS011;12519;43.318;21.898;2022-10-17T06:59:53;23.0;;;17.0;;
21120;SDS011;12519;43.318;21.898;2022-10-17T07:04:30;23.0;;;17.0;;
21120;SDS011;12519;43.318;21.898;2022-10-17T07:09:08;23.0;;;19.0;;
21120;SDS011;12519;43.318;21.898;2022-10-17T07:13:46;23.0;;;19.0;;
21120;SDS011;12519;43.318;21.898;2022-10-17T07:18:24;23.0;;;21.0;;
21120;SDS011;12519;43.318;21.898;2022-10-17T07:23:02;23.0;;;21.0;;
21120;SDS011;12519;43.318;21.898;2022-10-17T07:27:40;24.0;;;22.0;;
21120;SDS011;12519;43.318;21.898;2022-10-17T07:32:17;24.0;;;22.0;;
21120;SDS011;12519;43.318;21.898;2022-10-17T07:36:53;26.0;;;24.0;;
21120;SDS011;12519;43.318;21.898;2022-10-17T07:41:29;26.0;;;24.0;;
21120;SDS011;12519;43.318;21.898;2022-10-17T07:46:06;26.0;;;24.0;;
21120;SDS011;12519;43.318;21.898;2022-10-17T07:50:43;26.0;;;24.0;;
21120;SDS011;12519;43.318;21.898;2022-10-17T07:55:20;25.0;;;24.0;;
21120;SDS011;12519;43.318;21.898;2022-10-17T07:59:56;25.0;;;24.0;;
21120;SDS011;12519;43.318;21.898;2022-10-17T08:04:34;25.0;;;24.0;;
21120;SDS011;12519;43.318;21.898;2022-10-17T08:09:11;22.0;;;22.0;;
21120;SDS011;12519;43.318;21.898;2022-10-17T08:13:48;22.0;;;22.0;;
21120;SDS011;12519;43.318;21.898;2022-10-17T08:18:25;20.0;;;19.0;;
21120;SDS011;12519;43.318;21.898;2022-10-17T08:23:02;20.0;;;19.0;;
21120;SDS011;12519;43.318;21.898;2022-10-17T08:27:39;20.0;;;19.0;;
21120;SDS011;12519;43.318;21.898;2022-10-17T08:32:16;20.0;;;19.0;;
21120;SDS011;12519;43.318;21.898;2022-10-17T08:36:54;20.0;;;19.0;;
21120;SDS011;12519;43.318;21.898;2022-10-17T08:48:45;18.0;;;18.0;;
21120;SDS011;12519;43.318;21.898;2022-10-17T08:53:37;18.0;;;18.0;;
21120;SDS011;12519;43.318;21.898;2022-10-17T08:58:32;17.0;;;17.0;;
21120;SDS011;12519;43.318;21.898;2022-10-17T09:03:45;17.0;;;17.0;;
21120;SDS011;12519;43.318;21.898;2022-10-17T09:09:24;21.0;;;18.0;;
21120;SDS011;12519;43.318;21.898;2022-10-17T09:17:07;25.0;;;18.0;;
21120;SDS011;12519;43.318;21.898;2022-10-17T09:22:08;25.0;;;18.0;;
21120;SDS011;12519;43.318;21.898;2022-10-17T09:27:00;24.0;;;18.0;;
21120;SDS011;12519;43.318;21.898;2022-10-17T09:31:53;24.0;;;18.0;;
21120;SDS011;12519;43.318;21.898;2022-10-17T09:36:52;24.0;;;19.0;;
21120;SDS011;12519;43.318;21.898;2022-10-17T09:41:41;24.0;;;19.0;;
21120;SDS011;12519;43.318;21.898;2022-10-17T09:46:37;24.0;;;19.0;;
21120;SDS011;12519;43.318;21.898;2022-10-17T09:51:16;24.0;;;19.0;;
21120;SDS011;12519;43.318;21.898;2022-10-17T09:56:02;23.0;;;19.0;;
21120;SDS011;12519;43.318;21.898;2022-10-17T10:00:51;23.0;;;19.0;;
21120;SDS011;12519;43.318;21.898;2022-10-17T10:06:14;20.0;;;17.0;;
21120;SDS011;12519;43.318;21.898;2022-10-17T10:11:01;20.0;;;17.0;;
21120;SDS011;12519;43.318;21.898;2022-10-17T10:15:47;16.0;;;15.0;;
21120;SDS011;12519;43.318;21.898;2022-10-17T10:20:34;16.0;;;15.0;;
21120;SDS011;12519;43.318;21.898;2022-10-17T10:25:16;16.0;;;14.0;;
21120;SDS011;12519;43.318;21.898;2022-10-17T10:29:53;16.0;;;14.0;;
21120;SDS011;12519;43.318;21.898;2022-10-17T10:34:30;16.0;;;14.0;;
21120;SDS011;12519;43.318;21.898;2022-10-17T10:39:31;15.0;;;12.0;;
21120;SDS011;12519;43.318;21.898;2022-10-17T10:44:28;15.0;;;12.0;;
21120;SDS011;12519;43.318;21.898;2022-10-17T10:49:31;16.0;;;14.0;;
21120;SDS011;12519;43.318;21.898;2022-10-17T10:54:22;16.0;;;14.0;;
21120;SDS011;12519;43.318;21.898;2022-10-17T10:59:32;16.0;;;15.0;;
21120;SDS011;12519;43.318;21.898;2022-10-17T11:04:46;16.0;;;15.0;;
21120;SDS011;12519;43.318;21.898;2022-10-17T11:09:57;14.0;;;13.0;;
21120;SDS011;12519;43.318;21.898;2022-10-17T11:15:15;13.0;;;11.0;;
21120;SDS011;12519;43.318;21.898;2022-10-17T11:20:30;13.0;;;11.0;;
21120;SDS011;12519;43.318;21.898;2022-10-17T11:25:37;12.0;;;11.0;;
21120;SDS011;12519;43.318;21.898;2022-10-17T11:30:17;12.0;;;11.0;;
21120;SDS011;12519;43.318;21.898;2022-10-17T11:35:14;12.0;;;11.0;;
21120;SDS011;12519;43.318;21.898;2022-10-17T11:40:17;12.0;;;11.0;;
21120;SDS011;12519;43.318;21.898;2022-10-17T11:45:17;12.0;;;11.0;;
21120;SDS011;12519;43.318;21.898;2022-10-17T11:50:26;12.0;;;10.0;;
21120;SDS011;12519;43.318;21.898;2022-10-17T11:55:23;11.0;;;9.0;;
21120;SDS011;12519;43.318;21.898;2022-10-17T12:00:30;11.0;;;9.0;;
21120;SDS011;12519;43.318;21.898;2022-10-17T12:05:45;10.0;;;8.0;;
21120;SDS011;12519;43.318;21.898;2022-10-17T12:11:02;10.0;;;8.0;;
21120;SDS011;12519;43.318;21.898;2022-10-17T12:18:24;8.0;;;7.0;;
21120;SDS011;12519;43.318;21.898;2022-10-17T12:23:25;8.0;;;7.0;;
21120;SDS011;12519;43.318;21.898;2022-10-17T12:28:25;9.0;;;8.0;;
21120;SDS011;12519;43.318;21.898;2022-10-17T12:33:22;9.0;;;8.0;;
21120;SDS011;12519;43.318;21.898;2022-10-17T12:38:24;10.0;;;8.0;;
21120;SDS011;12519;43.318;21.898;2022-10-17T12:43:52;10.0;;;8.0;;
21120;SDS011;12519;43.318;21.898;2022-10-17T12:49:21;9.0;;;8.0;;
21120;SDS011;12519;43.318;21.898;2022-10-17T12:54:18;9.0;;;8.0;;
21120;SDS011;12519;43.318;21.898;2022-10-17T12:58:58;8.0;;;7.0;;
21120;SDS011;12519;43.318;21.898;2022-10-17T13:03:46;8.0;;;7.0;;
21120;SDS011;12519;43.318;21.898;2022-10-17T13:08:32;8.0;;;6.0;;
21120;SDS011;12519;43.318;21.898;2022-10-17T13:13:22;8.0;;;6.0;;
21120;SDS011;12519;43.318;21.898;2022-10-17T13:18:22;7.0;;;6.0;;
21120;SDS011;12519;43.318;21.898;2022-10-17T13:23:02;7.0;;;6.0;;
21120;SDS011;12519;43.318;21.898;2022-10-17T13:27:38;8.0;;;7.0;;
21120;SDS011;12519;43.318;21.898;2022-10-17T13:32:15;8.0;;;7.0;;
21120;SDS011;12519;43.318;21.898;2022-10-17T13:36:58;8.0;;;8.0;;
21120;SDS011;12519;43.318;21.898;2022-10-17T13:41:40;8.0;;;8.0;;
21120;SDS011;12519;43.318;21.898;2022-10-17T13:46:28;12.0;;;11.0;;
21120;SDS011;12519;43.318;21.898;2022-10-17T13:51:12;12.0;;;11.0;;
21120;SDS011;12519;43.318;21.898;2022-10-17T13:55:57;16.0;;;14.0;;
21120;SDS011;12519;43.318;21.898;2022-10-17T14:00:36;16.0;;;14.0;;
21120;SDS011;12519;43.318;21.898;2022-10-17T14:05:18;16.0;;;14.0;;
21120;SDS011;12519;43.318;21.898;2022-10-17T14:09:56;14.0;;;12.0;;
21120;SDS011;12519;43.318;21.898;2022-10-17T14:14:33;14.0;;;12.0;;
21120;SDS011;12519;43.318;21.898;2022-10-17T14:19:26;12.0;;;11.0;;
21120;SDS011;12519;43.318;21.898;2022-10-17T14:24:29;12.0;;;11.0;;
21120;SDS011;12519;43.318;21.898;2022-10-17T14:29:24;13.0;;;11.0;;
21120;SDS011;12519;43.318;21.898;2022-10-17T14:34:05;13.0;;;11.0;;
21120;SDS011;12519;43.318;21.898;2022-10-17T14:38:57;14.0;;;11.0;;
21120;SDS011;12519;43.318;21.898;2022-10-17T14:43:36;14.0;;;11.0;;
21120;SDS011;12519;43.318;21.898;2022-10-17T14:48:20;12.0;;;9.0;;
21120;SDS011;12519;43.318;21.898;2022-10-17T14:53:19;12.0;;;9.0;;
21120;SDS011;12519;43.318;21.898;2022-10-17T14:57:57;10.0;;;7.0;;
21120;SDS011;12519;43.318;21.898;2022-10-17T15:02:34;10.0;;;7.0;;
21120;SDS011;12519;43.318;21.898;2022-10-17T15:07:15;8.0;;;7.0;;
21120;SDS011;12519;43.318;21.898;2022-10-17T15:11:54;8.0;;;7.0;;
21120;SDS011;12519;43.318;21.898;2022-10-17T15:16:39;7.0;;;7.0;;
21120;SDS011;12519;43.318;21.898;2022-10-17T15:21:22;7.0;;;7.0;;
21120;SDS011;12519;43.318;21.898;2022-10-17T15:26:16;8.0;;;8.0;;
21120;SDS011;12519;43.318;21.898;2022-10-17T15:31:02;8.0;;;8.0;;
21120;SDS011;12519;43.318;21.898;2022-10-17T15:35:40;8.0;;;8.0;;
21120;SDS011;12519;43.318;21.898;2022-10-17T15:40:22;9.0;;;8.0;;
21120;SDS011;12519;43.318;21.898;2022-10-17T15:45:01;9.0;;;8.0;;
21120;SDS011;12519;43.318;21.898;2022-10-17T15:49:38;11.0;;;8.0;;
21120;SDS011;12519;43.318;21.898;2022-10-17T15:54:14;11.0;;;8.0;;
21120;SDS011;12519;43.318;21.898;2022-10-17T15:58:51;13.0;;;9.0;;
21120;SDS011;12519;43.318;21.898;2022-10-17T16:03:28;13.0;;;9.0;;
21120;SDS011;12519;43.318;21.898;2022-10-17T16:08:05;12.0;;;9.0;;
21120;SDS011;12519;43.318;21.898;2022-10-17T16:12:43;12.0;;;9.0;;
21120;SDS011;12519;43.318;21.898;2022-10-17T16:17:21;11.0;;;9.0;;
21120;SDS011;12519;43.318;21.898;2022-10-17T16:22:00;11.0;;;9.0;;
21120;SDS011;12519;43.318;21.898;2022-10-17T16:26:38;12.0;;;10.0;;
21120;SDS011;12519;43.318;21.898;2022-10-17T16:31:23;12.0;;;10.0;;
21120;SDS011;12519;43.318;21.898;2022-10-17T16:36:07;13.0;;;11.0;;
21120;SDS011;12519;43.318;21.898;2022-10-17T16:40:44;13.0;;;11.0;;
21120;SDS011;12519;43.318;21.898;2022-10-17T16:45:22;13.0;;;11.0;;
21120;SDS011;12519;43.318;21.898;2022-10-17T16:49:59;12.0;;;11.0;;
21120;SDS011;12519;43.318;21.898;2022-10-17T16:54:36;12.0;;;11.0;;
21120;SDS011;12519;43.318;21.898;2022-10-17T16:59:13;12.0;;;11.0;;
21120;SDS011;12519;43.318;21.898;2022-10-17T17:03:52;12.0;;;11.0;;
21120;SDS011;12519;43.318;21.898;2022-10-17T17:08:31;12.0;;;10.0;;
21120;SDS011;12519;43.318;21.898;2022-10-17T17:13:10;12.0;;;10.0;;
21120;SDS011;12519;43.318;21.898;2022-10-17T17:17:48;13.0;;;10.0;;
21120;SDS011;12519;43.318;21.898;2022-10-17T17:22:24;13.0;;;10.0;;
21120;SDS011;12519;43.318;21.898;2022-10-17T17:27:01;15.0;;;12.0;;
21120;SDS011;12519;43.318;21.898;2022-10-17T17:31:38;15.0;;;12.0;;
21120;SDS011;12519;43.318;21.898;2022-10-17T17:36:21;17.0;;;15.0;;
21120;SDS011;12519;43.318;21.898;2022-10-17T17:41:04;17.0;;;15.0;;
21120;SDS011;12519;43.318;21.898;2022-10-17T17:45:42;17.0;;;15.0;;
21120;SDS011;12519;43.318;21.898;2022-10-17T17:50:20;15.0;;;13.0;;
21120;SDS011;12519;43.318;21.898;2022-10-17T17:54:57;15.0;;;13.0;;
21120;SDS011;12519;43.318;21.898;2022-10-17T17:59:34;13.0;;;11.0;;
21120;SDS011;12519;43.318;21.898;2022-10-17T18:04:13;13.0;;;11.0;;
21120;SDS011;12519;43.318;21.898;2022-10-17T18:08:55;15.0;;;12.0;;
21120;SDS011;12519;43.318;21.898;2022-10-17T18:13:34;15.0;;;12.0;;
21120;SDS011;12519;43.318;21.898;2022-10-17T18:18:12;17.0;;;14.0;;
21120;SDS011;12519;43.318;21.898;2022-10-17T18:22:48;17.0;;;14.0;;
21120;SDS011;12519;43.318;21.898;2022-10-17T18:27:24;18.0;;;16.0;;
21120;SDS011;12519;43.318;21.898;2022-10-17T18:32:00;18.0;;;16.0;;
21120;SDS011;12519;43.318;21.898;2022-10-17T18:36:37;19.0;;;17.0;;
21120;SDS011;12519;43.318;21.898;2022-10-17T18:41:20;19.0;;;17.0;;
21120;SDS011;12519;43.318;21.898;2022-10-17T18:46:04;19.0;;;17.0;;
21120;SDS011;12519;43.318;21.898;2022-10-17T18:50:45;26.0;;;22.0;;
21120;SDS011;12519;43.318;21.898;2022-10-17T18:55:22;26.0;;;22.0;;
21120;SDS011;12519;43.318;21.898;2022-10-17T18:59:59;32.0;;;27.0;;
21120;SDS011;12519;43.318;21.898;2022-10-17T19:04:35;32.0;;;27.0;;
21120;SDS011;12519;43.318;21.898;2022-10-17T19:09:14;26.0;;;23.0;;
21120;SDS011;12519;43.318;21.898;2022-10-17T19:13:55;26.0;;;23.0;;
21120;SDS011;12519;43.318;21.898;2022-10-17T19:18:41;20.0;;;19.0;;
21120;SDS011;12519;43.318;21.898;2022-10-17T19:23:23;20.0;;;19.0;;
21120;SDS011;12519;43.318;21.898;2022-10-17T19:28:00;24.0;;;22.0;;
21120;SDS011;12519;43.318;21.898;2022-10-17T19:32:38;24.0;;;22.0;;
21120;SDS011;12519;43.318;21.898;2022-10-17T19:37:15;29.0;;;26.0;;
21120;SDS011;12519;43.318;21.898;2022-10-17T19:41:52;29.0;;;26.0;;
21120;SDS011;12519;43.318;21.898;2022-10-17T19:46:31;30.0;;;24.0;;
21120;SDS011;12519;43.318;21.898;2022-10-17T19:51:15;30.0;;;24.0;;
21120;SDS011;12519;43.318;21.898;2022-10-17T19:55:59;30.0;;;24.0;;
21120;SDS011;12519;43.318;21.898;2022-10-17T20:00:37;32.0;;;23.0;;
21120;SDS011;12519;43.318;21.898;2022-10-17T20:05:14;32.0;;;23.0;;
21120;SDS011;12519;43.318;21.898;2022-10-17T20:09:51;28.0;;;22.0;;
21120;SDS011;12519;43.318;21.898;2022-10-17T20:14:27;28.0;;;22.0;;
21120;SDS011;12519;43.318;21.898;2022-10-17T20:19:09;25.0;;;22.0;;
21120;SDS011;12519;43.318;21.898;2022-10-17T20:23:49;25.0;;;22.0;;
21120;SDS011;12519;43.318;21.898;2022-10-17T20:28:27;30.0;;;26.0;;
21120;SDS011;12519;43.318;21.898;2022-10-17T20:33:06;30.0;;;26.0;;
21120;SDS011;12519;43.318;21.898;2022-10-17T20:37:43;34.0;;;31.0;;
21120;SDS011;12519;43.318;21.898;2022-10-17T20:42:20;34.0;;;31.0;;
21120;SDS011;12519;43.318;21.898;2022-10-17T20:46:57;34.0;;;28.0;;
21120;SDS011;12519;43.318;21.898;2022-10-17T20:51:35;34.0;;;28.0;;
21120;SDS011;12519;43.318;21.898;2022-10-17T20:56:20;34.0;;;28.0;;
21120;SDS011;12519;43.318;21.898;2022-10-17T21:01:06;34.0;;;26.0;;
21120;SDS011;12519;43.318;21.898;2022-10-17T21:05:44;34.0;;;26.0;;
21120;SDS011;12519;43.318;21.898;2022-10-17T21:10:20;25.0;;;20.0;;
21120;SDS011;12519;43.318;21.898;2022-10-17T21:14:57;25.0;;;20.0;;
21120;SDS011;12519;43.318;21.898;2022-10-17T21:19:34;16.0;;;14.0;;
21120;SDS011;12519;43.318;21.898;2022-10-17T21:24:15;16.0;;;14.0;;
21120;SDS011;12519;43.318;21.898;2022-10-17T21:28:52;18.0;;;15.0;;
21120;SDS011;12519;43.318;21.898;2022-10-17T21:33:30;18.0;;;15.0;;
21120;SDS011;12519;43.318;21.898;2022-10-17T21:38:07;19.0;;;16.0;;
21120;SDS011;12519;43.318;21.898;2022-10-17T21:42:44;19.0;;;16.0;;
21120;SDS011;12519;43.318;21.898;2022-10-17T21:47:20;26.0;;;22.0;;
21120;SDS011;12519;43.318;21.898;2022-10-17T21:51:57;26.0;;;22.0;;
21120;SDS011;12519;43.318;21.898;2022-10-17T21:56:35;33.0;;;27.0;;
21120;SDS011;12519;43.318;21.898;2022-10-17T22:01:18;33.0;;;27.0;;
21120;SDS011;12519;43.318;21.898;2022-10-17T22:06:01;33.0;;;27.0;;
21120;SDS011;12519;43.318;21.898;2022-10-17T22:10:43;29.0;;;25.0;;
21120;SDS011;12519;43.318;21.898;2022-10-17T22:15:21;29.0;;;25.0;;
21120;SDS011;12519;43.318;21.898;2022-10-17T22:19:57;25.0;;;23.0;;
21120;SDS011;12519;43.318;21.898;2022-10-17T22:24:34;25.0;;;23.0;;
21120;SDS011;12519;43.318;21.898;2022-10-17T22:29:12;28.0;;;26.0;;
21120;SDS011;12519;43.318;21.898;2022-10-17T22:33:51;28.0;;;26.0;;
21120;SDS011;12519;43.318;21.898;2022-10-17T22:38:29;31.0;;;29.0;;
21120;SDS011;12519;43.318;21.898;2022-10-17T22:43:05;31.0;;;29.0;;
21120;SDS011;12519;43.318;21.898;2022-10-17T22:47:42;32.0;;;30.0;;
21120;SDS011;12519;43.318;21.898;2022-10-17T22:52:19;32.0;;;30.0;;
21120;SDS011;12519;43.318;21.898;2022-10-17T22:56:56;33.0;;;30.0;;
21120;SDS011;12519;43.318;21.898;2022-10-17T23:01:33;33.0;;;30.0;;
21120;SDS011;12519;43.318;21.898;2022-10-17T23:06:11;33.0;;;30.0;;
21120;SDS011;12519;43.318;21.898;2022-10-17T23:10:51;40.0;;;34.0;;
21120;SDS011;12519;43.318;21.898;2022-10-17T23:15:30;40.0;;;34.0;;
21120;SDS011;12519;43.318;21.898;2022-10-17T23:20:10;47.0;;;38.0;;
21120;SDS011;12519;43.318;21.898;2022-10-17T23:24:47;47.0;;;38.0;;
21120;SDS011;12519;43.318;21.898;2022-10-17T23:29:24;40.0;;;32.0;;
21120;SDS011;12519;43.318;21.898;2022-10-17T23:34:07;40.0;;;32.0;;
21120;SDS011;12519;43.318;21.898;2022-10-17T23:38:47;33.0;;;25.0;;
21120;SDS011;12519;43.318;21.898;2022-10-17T23:43:24;33.0;;;25.0;;
21120;SDS011;12519;43.318;21.898;2022-10-17T23:48:00;32.0;;;25.0;;
21120;SDS011;12519;43.318;21.898;2022-10-17T23:52:36;32.0;;;25.0;;
21120;SDS011;12519;43.318;21.898;2022-10-17T23:57:13;31.0;;;25.0;;
